sensor_id;sensor_type;location;lat;lon;timestamp;P1;durP1;ratioP1;P2;durP2;ratioP2
38399;SDS011;24180;42.676;23.320;2023-02-26T00:00:26;13.30;;;4.17;;
38399;SDS011;24180;42.676;23.320;2023-02-26T00:02:51;9.13;;;5.90;;
38399;SDS011;24180;42.676;23.320;2023-02-26T00:05:17;14.23;;;6.10;;
38399;SDS011;24180;42.676;23.320;2023-02-26T00:07:42;15.80;;;6.50;;
38399;SDS011;24180;42.676;23.320;2023-02-26T00:10:08;17.17;;;6.10;;
38399;SDS011;24180;42.676;23.320;2023-02-26T00:12:36;13.07;;;6.20;;
38399;SDS011;24180;42.676;23.320;2023-02-26T00:15:02;7.90;;;4.73;;
38399;SDS011;24180;42.676;23.320;2023-02-26T00:17:33;9.53;;;6.17;;
38399;SDS011;24180;42.676;23.320;2023-02-26T00:20:06;12.17;;;5.60;;
38399;SDS011;24180;42.676;23.320;2023-02-26T00:22:36;12.20;;;6.83;;
38399;SDS011;24180;42.676;23.320;2023-02-26T00:25:02;16.80;;;5.50;;
38399;SDS011;24180;42.676;23.320;2023-02-26T00:27:27;9.33;;;5.73;;
38399;SDS011;24180;42.676;23.320;2023-02-26T00:29:53;11.30;;;5.37;;
38399;SDS011;24180;42.676;23.320;2023-02-26T00:32:19;10.90;;;5.50;;
38399;SDS011;24180;42.676;23.320;2023-02-26T00:34:45;10.50;;;5.27;;
38399;SDS011;24180;42.676;23.320;2023-02-26T00:42:25;16.87;;;5.97;;
38399;SDS011;24180;42.676;23.320;2023-02-26T00:44:51;9.27;;;5.87;;
38399;SDS011;24180;42.676;23.320;2023-02-26T00:47:21;12.50;;;5.70;;
38399;SDS011;24180;42.676;23.320;2023-02-26T00:50:00;12.47;;;5.30;;
38399;SDS011;24180;42.676;23.320;2023-02-26T00:52:45;7.67;;;5.20;;
38399;SDS011;24180;42.676;23.320;2023-02-26T00:55:27;10.13;;;5.00;;
38399;SDS011;24180;42.676;23.320;2023-02-26T00:57:53;15.97;;;5.67;;
38399;SDS011;24180;42.676;23.320;2023-02-26T01:00:18;10.87;;;5.07;;
38399;SDS011;24180;42.676;23.320;2023-02-26T01:02:44;10.10;;;5.00;;
38399;SDS011;24180;42.676;23.320;2023-02-26T01:05:10;11.27;;;4.63;;
38399;SDS011;24180;42.676;23.320;2023-02-26T01:07:43;9.90;;;4.73;;
38399;SDS011;24180;42.676;23.320;2023-02-26T01:10:21;7.43;;;4.03;;
38399;SDS011;24180;42.676;23.320;2023-02-26T01:12:48;7.87;;;4.97;;
38399;SDS011;24180;42.676;23.320;2023-02-26T01:15:13;19.70;;;5.43;;
38399;SDS011;24180;42.676;23.320;2023-02-26T01:17:44;11.90;;;4.63;;
38399;SDS011;24180;42.676;23.320;2023-02-26T01:20:21;11.87;;;5.40;;
38399;SDS011;24180;42.676;23.320;2023-02-26T01:22:59;15.07;;;5.77;;
38399;SDS011;24180;42.676;23.320;2023-02-26T01:28:03;14.57;;;5.50;;
38399;SDS011;24180;42.676;23.320;2023-02-26T01:30:28;14.80;;;5.20;;
38399;SDS011;24180;42.676;23.320;2023-02-26T01:33:13;11.50;;;5.07;;
38399;SDS011;24180;42.676;23.320;2023-02-26T01:35:52;11.60;;;4.67;;
38399;SDS011;24180;42.676;23.320;2023-02-26T01:49:41;4.57;;;3.57;;
38399;SDS011;24180;42.676;23.320;2023-02-26T01:55:10;12.73;;;4.63;;
38399;SDS011;24180;42.676;23.320;2023-02-26T01:57:35;17.00;;;5.53;;
38399;SDS011;24180;42.676;23.320;2023-02-26T02:00:01;15.33;;;5.27;;
38399;SDS011;24180;42.676;23.320;2023-02-26T02:02:26;14.03;;;5.37;;
38399;SDS011;24180;42.676;23.320;2023-02-26T02:04:52;11.40;;;5.63;;
38399;SDS011;24180;42.676;23.320;2023-02-26T02:07:18;42.03;;;7.00;;
38399;SDS011;24180;42.676;23.320;2023-02-26T02:09:43;15.33;;;5.30;;
38399;SDS011;24180;42.676;23.320;2023-02-26T02:32:12;11.30;;;5.17;;
38399;SDS011;24180;42.676;23.320;2023-02-26T02:37:35;5.73;;;3.83;;
38399;SDS011;24180;42.676;23.320;2023-02-26T02:45:28;9.97;;;4.73;;
38399;SDS011;24180;42.676;23.320;2023-02-26T02:47:58;14.10;;;4.50;;
38399;SDS011;24180;42.676;23.320;2023-02-26T02:50:33;10.90;;;4.57;;
38399;SDS011;24180;42.676;23.320;2023-02-26T02:53:07;7.87;;;4.93;;
38399;SDS011;24180;42.676;23.320;2023-02-26T02:55:39;15.20;;;5.37;;
38399;SDS011;24180;42.676;23.320;2023-02-26T02:58:19;9.17;;;4.70;;
38399;SDS011;24180;42.676;23.320;2023-02-26T03:00:50;9.13;;;4.37;;
38399;SDS011;24180;42.676;23.320;2023-02-26T03:05:52;7.20;;;4.63;;
38399;SDS011;24180;42.676;23.320;2023-02-26T03:08:19;9.03;;;5.07;;
38399;SDS011;24180;42.676;23.320;2023-02-26T03:10:47;15.23;;;5.40;;
38399;SDS011;24180;42.676;23.320;2023-02-26T03:13:16;11.17;;;5.37;;
38399;SDS011;24180;42.676;23.320;2023-02-26T03:24:14;12.37;;;5.53;;
38399;SDS011;24180;42.676;23.320;2023-02-26T03:26:56;17.13;;;5.10;;
38399;SDS011;24180;42.676;23.320;2023-02-26T03:29:38;10.10;;;5.23;;
38399;SDS011;24180;42.676;23.320;2023-02-26T03:32:18;7.57;;;5.03;;
38399;SDS011;24180;42.676;23.320;2023-02-26T03:35:01;9.27;;;4.50;;
38399;SDS011;24180;42.676;23.320;2023-02-26T03:37:39;11.20;;;5.27;;
38399;SDS011;24180;42.676;23.320;2023-02-26T03:40:26;9.00;;;4.60;;
38399;SDS011;24180;42.676;23.320;2023-02-26T03:42:58;11.23;;;5.07;;
38399;SDS011;24180;42.676;23.320;2023-02-26T03:45:30;9.67;;;4.20;;
38399;SDS011;24180;42.676;23.320;2023-02-26T03:48:03;10.93;;;4.73;;
38399;SDS011;24180;42.676;23.320;2023-02-26T03:53:00;11.33;;;5.17;;
38399;SDS011;24180;42.676;23.320;2023-02-26T03:55:33;13.50;;;5.07;;
38399;SDS011;24180;42.676;23.320;2023-02-26T03:58:09;12.23;;;5.07;;
38399;SDS011;24180;42.676;23.320;2023-02-26T04:00:34;10.73;;;5.77;;
38399;SDS011;24180;42.676;23.320;2023-02-26T04:05:47;9.20;;;4.13;;
38399;SDS011;24180;42.676;23.320;2023-02-26T04:08:14;10.40;;;5.17;;
38399;SDS011;24180;42.676;23.320;2023-02-26T04:10:51;13.10;;;4.60;;
38399;SDS011;24180;42.676;23.320;2023-02-26T04:13:21;9.27;;;4.50;;
38399;SDS011;24180;42.676;23.320;2023-02-26T04:15:46;9.40;;;4.73;;
38399;SDS011;24180;42.676;23.320;2023-02-26T04:18:12;17.60;;;5.77;;
38399;SDS011;24180;42.676;23.320;2023-02-26T04:20:37;11.80;;;5.43;;
38399;SDS011;24180;42.676;23.320;2023-02-26T04:23:03;7.53;;;4.43;;
38399;SDS011;24180;42.676;23.320;2023-02-26T04:25:28;12.57;;;4.77;;
38399;SDS011;24180;42.676;23.320;2023-02-26T04:27:54;15.80;;;5.77;;
38399;SDS011;24180;42.676;23.320;2023-02-26T04:30:20;11.07;;;4.60;;
38399;SDS011;24180;42.676;23.320;2023-02-26T04:32:45;12.63;;;4.50;;
38399;SDS011;24180;42.676;23.320;2023-02-26T04:35:11;10.90;;;4.27;;
38399;SDS011;24180;42.676;23.320;2023-02-26T04:37:36;5.93;;;4.00;;
38399;SDS011;24180;42.676;23.320;2023-02-26T04:40:02;16.47;;;5.73;;
38399;SDS011;24180;42.676;23.320;2023-02-26T04:42:28;12.37;;;5.33;;
38399;SDS011;24180;42.676;23.320;2023-02-26T04:44:54;13.30;;;5.20;;
38399;SDS011;24180;42.676;23.320;2023-02-26T04:47:19;13.97;;;4.73;;
38399;SDS011;24180;42.676;23.320;2023-02-26T04:49:44;18.37;;;5.40;;
38399;SDS011;24180;42.676;23.320;2023-02-26T04:52:10;13.93;;;4.90;;
38399;SDS011;24180;42.676;23.320;2023-02-26T04:54:35;14.17;;;5.30;;
38399;SDS011;24180;42.676;23.320;2023-02-26T04:57:01;12.23;;;4.50;;
38399;SDS011;24180;42.676;23.320;2023-02-26T04:59:27;15.50;;;4.70;;
38399;SDS011;24180;42.676;23.320;2023-02-26T05:01:52;14.87;;;4.80;;
38399;SDS011;24180;42.676;23.320;2023-02-26T05:04:18;11.43;;;3.67;;
38399;SDS011;24180;42.676;23.320;2023-02-26T05:06:44;14.30;;;4.93;;
38399;SDS011;24180;42.676;23.320;2023-02-26T05:09:09;11.07;;;4.90;;
38399;SDS011;24180;42.676;23.320;2023-02-26T05:11:35;13.87;;;4.83;;
38399;SDS011;24180;42.676;23.320;2023-02-26T05:14:00;15.17;;;5.37;;
38399;SDS011;24180;42.676;23.320;2023-02-26T05:16:25;13.20;;;5.20;;
38399;SDS011;24180;42.676;23.320;2023-02-26T05:18:51;9.03;;;5.10;;
38399;SDS011;24180;42.676;23.320;2023-02-26T05:21:16;13.90;;;5.33;;
38399;SDS011;24180;42.676;23.320;2023-02-26T05:23:42;15.90;;;5.37;;
38399;SDS011;24180;42.676;23.320;2023-02-26T05:26:07;13.00;;;5.40;;
38399;SDS011;24180;42.676;23.320;2023-02-26T05:28:33;15.17;;;5.20;;
38399;SDS011;24180;42.676;23.320;2023-02-26T05:31:00;12.97;;;4.07;;
38399;SDS011;24180;42.676;23.320;2023-02-26T05:33:26;14.90;;;5.27;;
38399;SDS011;24180;42.676;23.320;2023-02-26T05:35:51;16.10;;;4.03;;
38399;SDS011;24180;42.676;23.320;2023-02-26T05:38:17;27.47;;;5.47;;
38399;SDS011;24180;42.676;23.320;2023-02-26T05:40:42;14.00;;;5.17;;
38399;SDS011;24180;42.676;23.320;2023-02-26T05:43:08;23.80;;;5.90;;
38399;SDS011;24180;42.676;23.320;2023-02-26T05:45:33;18.00;;;5.57;;
38399;SDS011;24180;42.676;23.320;2023-02-26T05:47:59;8.50;;;5.13;;
38399;SDS011;24180;42.676;23.320;2023-02-26T05:50:25;14.10;;;4.90;;
38399;SDS011;24180;42.676;23.320;2023-02-26T05:52:51;16.63;;;5.13;;
38399;SDS011;24180;42.676;23.320;2023-02-26T05:55:16;18.70;;;5.40;;
38399;SDS011;24180;42.676;23.320;2023-02-26T05:57:42;8.47;;;4.70;;
38399;SDS011;24180;42.676;23.320;2023-02-26T06:00:08;14.63;;;4.80;;
38399;SDS011;24180;42.676;23.320;2023-02-26T06:02:34;23.33;;;4.73;;
38399;SDS011;24180;42.676;23.320;2023-02-26T06:04:59;13.23;;;4.93;;
38399;SDS011;24180;42.676;23.320;2023-02-26T06:07:24;13.07;;;5.17;;
38399;SDS011;24180;42.676;23.320;2023-02-26T06:09:50;13.20;;;4.80;;
38399;SDS011;24180;42.676;23.320;2023-02-26T06:12:15;9.47;;;3.87;;
38399;SDS011;24180;42.676;23.320;2023-02-26T06:14:41;9.53;;;3.93;;
38399;SDS011;24180;42.676;23.320;2023-02-26T06:17:06;15.57;;;5.10;;
38399;SDS011;24180;42.676;23.320;2023-02-26T06:19:32;14.07;;;5.33;;
38399;SDS011;24180;42.676;23.320;2023-02-26T06:21:58;18.30;;;5.10;;
38399;SDS011;24180;42.676;23.320;2023-02-26T06:24:23;20.23;;;5.30;;
38399;SDS011;24180;42.676;23.320;2023-02-26T06:26:49;18.37;;;4.90;;
38399;SDS011;24180;42.676;23.320;2023-02-26T06:29:14;18.93;;;5.40;;
38399;SDS011;24180;42.676;23.320;2023-02-26T06:31:42;15.50;;;5.00;;
38399;SDS011;24180;42.676;23.320;2023-02-26T06:34:08;18.13;;;5.60;;
38399;SDS011;24180;42.676;23.320;2023-02-26T06:36:33;11.10;;;5.40;;
38399;SDS011;24180;42.676;23.320;2023-02-26T06:38:59;15.13;;;5.70;;
38399;SDS011;24180;42.676;23.320;2023-02-26T06:41:24;13.57;;;5.27;;
38399;SDS011;24180;42.676;23.320;2023-02-26T06:43:49;15.97;;;4.93;;
38399;SDS011;24180;42.676;23.320;2023-02-26T06:46:15;16.97;;;5.33;;
38399;SDS011;24180;42.676;23.320;2023-02-26T06:48:40;15.13;;;5.27;;
38399;SDS011;24180;42.676;23.320;2023-02-26T06:51:06;16.10;;;4.50;;
38399;SDS011;24180;42.676;23.320;2023-02-26T06:53:31;16.20;;;4.97;;
38399;SDS011;24180;42.676;23.320;2023-02-26T06:55:57;16.70;;;4.83;;
38399;SDS011;24180;42.676;23.320;2023-02-26T06:58:22;17.47;;;4.70;;
38399;SDS011;24180;42.676;23.320;2023-02-26T07:00:48;18.70;;;5.33;;
38399;SDS011;24180;42.676;23.320;2023-02-26T07:03:15;12.63;;;5.13;;
38399;SDS011;24180;42.676;23.320;2023-02-26T07:05:41;17.43;;;4.77;;
38399;SDS011;24180;42.676;23.320;2023-02-26T07:08:08;17.63;;;5.20;;
38399;SDS011;24180;42.676;23.320;2023-02-26T07:10:34;17.57;;;4.70;;
38399;SDS011;24180;42.676;23.320;2023-02-26T07:13:00;14.30;;;4.80;;
38399;SDS011;24180;42.676;23.320;2023-02-26T07:15:26;12.67;;;5.17;;
38399;SDS011;24180;42.676;23.320;2023-02-26T07:17:51;12.87;;;4.20;;
38399;SDS011;24180;42.676;23.320;2023-02-26T07:20:17;24.90;;;6.33;;
38399;SDS011;24180;42.676;23.320;2023-02-26T07:22:43;26.07;;;4.87;;
38399;SDS011;24180;42.676;23.320;2023-02-26T07:25:09;14.37;;;5.13;;
38399;SDS011;24180;42.676;23.320;2023-02-26T07:27:35;21.23;;;5.17;;
38399;SDS011;24180;42.676;23.320;2023-02-26T07:30:01;13.13;;;4.83;;
38399;SDS011;24180;42.676;23.320;2023-02-26T07:32:28;15.63;;;4.63;;
38399;SDS011;24180;42.676;23.320;2023-02-26T07:34:53;12.07;;;4.40;;
38399;SDS011;24180;42.676;23.320;2023-02-26T07:37:19;13.33;;;4.30;;
38399;SDS011;24180;42.676;23.320;2023-02-26T07:39:45;17.50;;;4.57;;
38399;SDS011;24180;42.676;23.320;2023-02-26T07:42:10;9.03;;;4.27;;
38399;SDS011;24180;42.676;23.320;2023-02-26T07:44:36;12.03;;;4.50;;
38399;SDS011;24180;42.676;23.320;2023-02-26T07:47:01;16.33;;;4.50;;
38399;SDS011;24180;42.676;23.320;2023-02-26T07:49:27;17.83;;;5.10;;
38399;SDS011;24180;42.676;23.320;2023-02-26T07:51:53;15.97;;;4.87;;
38399;SDS011;24180;42.676;23.320;2023-02-26T07:54:18;8.43;;;3.90;;
38399;SDS011;24180;42.676;23.320;2023-02-26T07:56:44;12.63;;;4.10;;
38399;SDS011;24180;42.676;23.320;2023-02-26T07:59:09;15.97;;;5.33;;
38399;SDS011;24180;42.676;23.320;2023-02-26T08:01:35;19.13;;;3.80;;
38399;SDS011;24180;42.676;23.320;2023-02-26T08:04:01;8.87;;;4.10;;
38399;SDS011;24180;42.676;23.320;2023-02-26T08:06:27;7.93;;;3.30;;
38399;SDS011;24180;42.676;23.320;2023-02-26T08:08:53;16.87;;;5.30;;
38399;SDS011;24180;42.676;23.320;2023-02-26T08:11:18;17.57;;;5.47;;
38399;SDS011;24180;42.676;23.320;2023-02-26T08:13:44;13.03;;;4.13;;
38399;SDS011;24180;42.676;23.320;2023-02-26T08:16:09;16.13;;;5.57;;
38399;SDS011;24180;42.676;23.320;2023-02-26T08:18:34;20.07;;;4.77;;
38399;SDS011;24180;42.676;23.320;2023-02-26T08:21:00;16.73;;;5.27;;
38399;SDS011;24180;42.676;23.320;2023-02-26T08:23:25;7.70;;;4.13;;
38399;SDS011;24180;42.676;23.320;2023-02-26T08:25:58;10.93;;;4.53;;
38399;SDS011;24180;42.676;23.320;2023-02-26T08:28:27;12.37;;;4.30;;
38399;SDS011;24180;42.676;23.320;2023-02-26T08:30:53;12.07;;;4.63;;
38399;SDS011;24180;42.676;23.320;2023-02-26T08:33:19;11.97;;;4.60;;
38399;SDS011;24180;42.676;23.320;2023-02-26T08:35:45;13.60;;;5.10;;
38399;SDS011;24180;42.676;23.320;2023-02-26T08:38:11;16.83;;;5.10;;
38399;SDS011;24180;42.676;23.320;2023-02-26T08:40:37;19.50;;;5.07;;
38399;SDS011;24180;42.676;23.320;2023-02-26T08:43:02;13.37;;;4.57;;
38399;SDS011;24180;42.676;23.320;2023-02-26T08:45:28;9.63;;;3.60;;
38399;SDS011;24180;42.676;23.320;2023-02-26T08:47:54;14.20;;;4.90;;
38399;SDS011;24180;42.676;23.320;2023-02-26T08:50:20;18.47;;;5.10;;
38399;SDS011;24180;42.676;23.320;2023-02-26T08:52:46;22.97;;;6.00;;
38399;SDS011;24180;42.676;23.320;2023-02-26T08:55:11;20.57;;;5.23;;
38399;SDS011;24180;42.676;23.320;2023-02-26T08:57:36;11.77;;;4.60;;
38399;SDS011;24180;42.676;23.320;2023-02-26T09:00:03;12.37;;;4.77;;
38399;SDS011;24180;42.676;23.320;2023-02-26T09:02:30;13.77;;;4.60;;
38399;SDS011;24180;42.676;23.320;2023-02-26T09:04:55;19.73;;;5.50;;
38399;SDS011;24180;42.676;23.320;2023-02-26T09:07:20;16.60;;;5.60;;
38399;SDS011;24180;42.676;23.320;2023-02-26T09:09:46;21.37;;;5.90;;
38399;SDS011;24180;42.676;23.320;2023-02-26T09:12:11;11.70;;;5.03;;
38399;SDS011;24180;42.676;23.320;2023-02-26T09:14:37;19.17;;;5.23;;
38399;SDS011;24180;42.676;23.320;2023-02-26T09:17:02;11.93;;;5.00;;
38399;SDS011;24180;42.676;23.320;2023-02-26T09:19:27;13.70;;;5.47;;
38399;SDS011;24180;42.676;23.320;2023-02-26T09:21:53;15.10;;;5.50;;
38399;SDS011;24180;42.676;23.320;2023-02-26T09:24:18;12.27;;;4.93;;
38399;SDS011;24180;42.676;23.320;2023-02-26T09:26:43;12.10;;;4.90;;
38399;SDS011;24180;42.676;23.320;2023-02-26T09:29:09;16.93;;;5.33;;
38399;SDS011;24180;42.676;23.320;2023-02-26T09:31:35;17.63;;;6.07;;
38399;SDS011;24180;42.676;23.320;2023-02-26T09:34:01;13.70;;;4.97;;
38399;SDS011;24180;42.676;23.320;2023-02-26T09:36:26;17.00;;;5.73;;
38399;SDS011;24180;42.676;23.320;2023-02-26T09:38:52;13.57;;;5.80;;
38399;SDS011;24180;42.676;23.320;2023-02-26T09:41:21;15.17;;;6.70;;
38399;SDS011;24180;42.676;23.320;2023-02-26T09:46:40;20.07;;;5.87;;
38399;SDS011;24180;42.676;23.320;2023-02-26T09:54:53;19.77;;;6.60;;
38399;SDS011;24180;42.676;23.320;2023-02-26T09:57:35;14.57;;;6.90;;
38399;SDS011;24180;42.676;23.320;2023-02-26T10:00:13;14.97;;;6.20;;
38399;SDS011;24180;42.676;23.320;2023-02-26T10:05:17;15.70;;;7.27;;
38399;SDS011;24180;42.676;23.320;2023-02-26T10:08:13;17.73;;;7.33;;
38399;SDS011;24180;42.676;23.320;2023-02-26T10:10:44;16.73;;;7.88;;
38399;SDS011;24180;42.676;23.320;2023-02-26T10:16:10;17.92;;;6.95;;
38399;SDS011;24180;42.676;23.320;2023-02-26T10:18:42;16.80;;;6.57;;
38399;SDS011;24180;42.676;23.320;2023-02-26T10:21:19;14.18;;;6.38;;
38399;SDS011;24180;42.676;23.320;2023-02-26T10:23:51;19.05;;;6.63;;
38399;SDS011;24180;42.676;23.320;2023-02-26T10:26:22;20.45;;;7.60;;
38399;SDS011;24180;42.676;23.320;2023-02-26T10:32:14;16.15;;;6.65;;
38399;SDS011;24180;42.676;23.320;2023-02-26T10:34:55;16.67;;;5.68;;
38399;SDS011;24180;42.676;23.320;2023-02-26T10:42:37;14.32;;;5.50;;
38399;SDS011;24180;42.676;23.320;2023-02-26T10:45:22;15.57;;;4.97;;
38399;SDS011;24180;42.676;23.320;2023-02-26T10:50:24;16.87;;;5.60;;
38399;SDS011;24180;42.676;23.320;2023-02-26T10:52:51;12.27;;;5.10;;
38399;SDS011;24180;42.676;23.320;2023-02-26T10:57:53;11.47;;;5.67;;
38399;SDS011;24180;42.676;23.320;2023-02-26T11:00:41;12.80;;;5.35;;
38399;SDS011;24180;42.676;23.320;2023-02-26T11:03:15;18.00;;;5.38;;
38399;SDS011;24180;42.676;23.320;2023-02-26T11:05:43;15.57;;;5.03;;
38399;SDS011;24180;42.676;23.320;2023-02-26T11:08:12;14.35;;;4.80;;
38399;SDS011;24180;42.676;23.320;2023-02-26T11:10:52;15.90;;;5.33;;
38399;SDS011;24180;42.676;23.320;2023-02-26T11:13:21;15.53;;;6.33;;
38399;SDS011;24180;42.676;23.320;2023-02-26T11:15:48;20.67;;;6.13;;
38399;SDS011;24180;42.676;23.320;2023-02-26T11:18:20;14.87;;;5.07;;
38399;SDS011;24180;42.676;23.320;2023-02-26T11:20:56;8.23;;;5.53;;
38399;SDS011;24180;42.676;23.320;2023-02-26T11:23:25;12.07;;;4.23;;
38399;SDS011;24180;42.676;23.320;2023-02-26T11:26:07;14.07;;;5.10;;
38399;SDS011;24180;42.676;23.320;2023-02-26T11:28:45;12.40;;;5.20;;
38399;SDS011;24180;42.676;23.320;2023-02-26T11:31:16;11.50;;;5.63;;
38399;SDS011;24180;42.676;23.320;2023-02-26T11:33:44;10.33;;;4.90;;
38399;SDS011;24180;42.676;23.320;2023-02-26T11:36:14;15.87;;;5.43;;
38399;SDS011;24180;42.676;23.320;2023-02-26T11:38:44;14.83;;;5.33;;
38399;SDS011;24180;42.676;23.320;2023-02-26T11:41:11;23.90;;;5.53;;
38399;SDS011;24180;42.676;23.320;2023-02-26T11:43:45;19.73;;;6.63;;
38399;SDS011;24180;42.676;23.320;2023-02-26T11:46:13;19.30;;;5.67;;
38399;SDS011;24180;42.676;23.320;2023-02-26T11:51:07;12.93;;;5.30;;
38399;SDS011;24180;42.676;23.320;2023-02-26T11:53:52;5.13;;;3.47;;
38399;SDS011;24180;42.676;23.320;2023-02-26T11:56:26;5.57;;;3.87;;
38399;SDS011;24180;42.676;23.320;2023-02-26T11:59:04;14.13;;;5.90;;
38399;SDS011;24180;42.676;23.320;2023-02-26T12:01:34;7.40;;;3.93;;
38399;SDS011;24180;42.676;23.320;2023-02-26T12:04:02;13.03;;;5.30;;
38399;SDS011;24180;42.676;23.320;2023-02-26T12:06:27;14.40;;;5.83;;
38399;SDS011;24180;42.676;23.320;2023-02-26T12:08:54;16.33;;;5.30;;
38399;SDS011;24180;42.676;23.320;2023-02-26T12:16:34;18.23;;;5.77;;
38399;SDS011;24180;42.676;23.320;2023-02-26T12:26:32;15.27;;;5.87;;
38399;SDS011;24180;42.676;23.320;2023-02-26T12:35:10;14.30;;;5.10;;
38399;SDS011;24180;42.676;23.320;2023-02-26T12:43:13;15.70;;;6.00;;
38399;SDS011;24180;42.676;23.320;2023-02-26T12:51:20;19.00;;;5.90;;
38399;SDS011;24180;42.676;23.320;2023-02-26T13:05:23;13.77;;;5.40;;
38399;SDS011;24180;42.676;23.320;2023-02-26T13:08:05;18.47;;;6.17;;
38399;SDS011;24180;42.676;23.320;2023-02-26T13:15:47;13.23;;;5.77;;
38399;SDS011;24180;42.676;23.320;2023-02-26T13:21:09;8.03;;;5.07;;
38399;SDS011;24180;42.676;23.320;2023-02-26T13:26:21;20.37;;;6.30;;
38399;SDS011;24180;42.676;23.320;2023-02-26T13:29:05;12.60;;;5.23;;
38399;SDS011;24180;42.676;23.320;2023-02-26T13:31:51;10.93;;;5.17;;
38399;SDS011;24180;42.676;23.320;2023-02-26T13:36:55;23.60;;;6.57;;
38399;SDS011;24180;42.676;23.320;2023-02-26T13:52:55;15.10;;;5.53;;
38399;SDS011;24180;42.676;23.320;2023-02-26T14:00:56;19.20;;;5.80;;
38399;SDS011;24180;42.676;23.320;2023-02-26T14:06:42;13.03;;;5.77;;
38399;SDS011;24180;42.676;23.320;2023-02-26T14:14:40;22.47;;;6.30;;
38399;SDS011;24180;42.676;23.320;2023-02-26T14:17:34;18.27;;;6.27;;
38399;SDS011;24180;42.676;23.320;2023-02-26T14:20:11;21.13;;;6.90;;
38399;SDS011;24180;42.676;23.320;2023-02-26T14:22:48;21.60;;;6.63;;
38399;SDS011;24180;42.676;23.320;2023-02-26T14:25:33;22.13;;;5.97;;
38399;SDS011;24180;42.676;23.320;2023-02-26T14:30:46;9.53;;;4.90;;
38399;SDS011;24180;42.676;23.320;2023-02-26T14:33:16;23.37;;;7.43;;
38399;SDS011;24180;42.676;23.320;2023-02-26T14:35:47;21.83;;;6.57;;
38399;SDS011;24180;42.676;23.320;2023-02-26T14:38:26;25.20;;;7.53;;
38399;SDS011;24180;42.676;23.320;2023-02-26T14:40:57;25.20;;;7.40;;
38399;SDS011;24180;42.676;23.320;2023-02-26T14:46:06;25.77;;;8.50;;
38399;SDS011;24180;42.676;23.320;2023-02-26T14:48:33;24.50;;;7.70;;
38399;SDS011;24180;42.676;23.320;2023-02-26T14:57:02;27.27;;;8.13;;
38399;SDS011;24180;42.676;23.320;2023-02-26T14:59:55;28.93;;;8.13;;
38399;SDS011;24180;42.676;23.320;2023-02-26T15:22:27;26.53;;;6.80;;
38399;SDS011;24180;42.676;23.320;2023-02-26T15:25:01;29.43;;;7.57;;
38399;SDS011;24180;42.676;23.320;2023-02-26T15:27:28;24.00;;;7.37;;
38399;SDS011;24180;42.676;23.320;2023-02-26T15:29:56;19.27;;;6.33;;
38399;SDS011;24180;42.676;23.320;2023-02-26T15:32:26;29.30;;;8.00;;
38399;SDS011;24180;42.676;23.320;2023-02-26T15:37:27;28.30;;;7.87;;
38399;SDS011;24180;42.676;23.320;2023-02-26T15:39:57;23.23;;;8.27;;
38399;SDS011;24180;42.676;23.320;2023-02-26T15:42:25;22.77;;;7.57;;
38399;SDS011;24180;42.676;23.320;2023-02-26T15:44:58;35.03;;;8.70;;
38399;SDS011;24180;42.676;23.320;2023-02-26T15:47:26;27.67;;;7.80;;
38399;SDS011;24180;42.676;23.320;2023-02-26T15:49:53;29.63;;;7.50;;
38399;SDS011;24180;42.676;23.320;2023-02-26T15:52:21;32.77;;;8.67;;
38399;SDS011;24180;42.676;23.320;2023-02-26T15:54:49;23.73;;;7.53;;
38399;SDS011;24180;42.676;23.320;2023-02-26T15:57:18;27.57;;;8.30;;
38399;SDS011;24180;42.676;23.320;2023-02-26T15:59:46;29.03;;;7.90;;
38399;SDS011;24180;42.676;23.320;2023-02-26T16:02:21;26.83;;;8.57;;
38399;SDS011;24180;42.676;23.320;2023-02-26T16:04:50;31.63;;;9.43;;
38399;SDS011;24180;42.676;23.320;2023-02-26T16:07:17;27.57;;;8.50;;
38399;SDS011;24180;42.676;23.320;2023-02-26T16:09:44;23.93;;;7.47;;
38399;SDS011;24180;42.676;23.320;2023-02-26T16:12:14;36.07;;;8.30;;
38399;SDS011;24180;42.676;23.320;2023-02-26T16:14:47;35.13;;;9.10;;
38399;SDS011;24180;42.676;23.320;2023-02-26T16:17:27;33.63;;;8.53;;
38399;SDS011;24180;42.676;23.320;2023-02-26T16:19:57;34.53;;;8.53;;
38399;SDS011;24180;42.676;23.320;2023-02-26T16:22:27;25.13;;;8.57;;
38399;SDS011;24180;42.676;23.320;2023-02-26T16:24:56;31.40;;;10.50;;
38399;SDS011;24180;42.676;23.320;2023-02-26T16:27:27;28.77;;;8.67;;
38399;SDS011;24180;42.676;23.320;2023-02-26T16:29:56;27.17;;;9.13;;
38399;SDS011;24180;42.676;23.320;2023-02-26T16:32:24;22.33;;;8.63;;
38399;SDS011;24180;42.676;23.320;2023-02-26T16:34:53;32.57;;;9.37;;
38399;SDS011;24180;42.676;23.320;2023-02-26T16:45:14;23.80;;;9.83;;
38399;SDS011;24180;42.676;23.320;2023-02-26T16:47:41;24.33;;;9.60;;
38399;SDS011;24180;42.676;23.320;2023-02-26T16:50:23;27.27;;;10.43;;
38399;SDS011;24180;42.676;23.320;2023-02-26T16:52:58;26.37;;;10.20;;
38399;SDS011;24180;42.676;23.320;2023-02-26T16:55:34;25.87;;;10.30;;
38399;SDS011;24180;42.676;23.320;2023-02-26T16:58:02;28.20;;;10.03;;
38399;SDS011;24180;42.676;23.320;2023-02-26T17:00:31;30.70;;;10.33;;
38399;SDS011;24180;42.676;23.320;2023-02-26T17:03:11;25.50;;;10.83;;
38399;SDS011;24180;42.676;23.320;2023-02-26T17:06:01;29.00;;;11.50;;
38399;SDS011;24180;42.676;23.320;2023-02-26T17:08:33;23.97;;;10.10;;
38399;SDS011;24180;42.676;23.320;2023-02-26T17:11:06;26.47;;;11.60;;
38399;SDS011;24180;42.676;23.320;2023-02-26T17:13:33;24.53;;;10.70;;
38399;SDS011;24180;42.676;23.320;2023-02-26T17:16:04;22.23;;;11.70;;
38399;SDS011;24180;42.676;23.320;2023-02-26T17:18:32;35.63;;;11.40;;
38399;SDS011;24180;42.676;23.320;2023-02-26T17:20:58;26.50;;;9.83;;
38399;SDS011;24180;42.676;23.320;2023-02-26T17:23:29;24.53;;;9.87;;
38399;SDS011;24180;42.676;23.320;2023-02-26T17:25:57;29.23;;;9.50;;
38399;SDS011;24180;42.676;23.320;2023-02-26T17:28:27;24.23;;;9.47;;
38399;SDS011;24180;42.676;23.320;2023-02-26T17:30:55;24.73;;;9.17;;
38399;SDS011;24180;42.676;23.320;2023-02-26T17:33:21;29.20;;;10.53;;
38399;SDS011;24180;42.676;23.320;2023-02-26T17:35:47;31.47;;;9.53;;
38399;SDS011;24180;42.676;23.320;2023-02-26T17:38:13;24.00;;;9.67;;
38399;SDS011;24180;42.676;23.320;2023-02-26T17:40:41;28.07;;;9.00;;
38399;SDS011;24180;42.676;23.320;2023-02-26T17:43:09;26.23;;;9.63;;
38399;SDS011;24180;42.676;23.320;2023-02-26T17:45:35;25.20;;;10.47;;
38399;SDS011;24180;42.676;23.320;2023-02-26T17:48:03;25.13;;;9.57;;
38399;SDS011;24180;42.676;23.320;2023-02-26T17:50:47;28.43;;;9.87;;
38399;SDS011;24180;42.676;23.320;2023-02-26T17:53:16;31.43;;;10.33;;
38399;SDS011;24180;42.676;23.320;2023-02-26T17:55:43;25.23;;;9.73;;
38399;SDS011;24180;42.676;23.320;2023-02-26T17:58:15;22.30;;;9.50;;
38399;SDS011;24180;42.676;23.320;2023-02-26T18:00:42;24.83;;;9.20;;
38399;SDS011;24180;42.676;23.320;2023-02-26T18:03:09;21.50;;;9.17;;
38399;SDS011;24180;42.676;23.320;2023-02-26T18:05:34;29.57;;;12.17;;
38399;SDS011;24180;42.676;23.320;2023-02-26T18:08:03;23.63;;;10.23;;
38399;SDS011;24180;42.676;23.320;2023-02-26T18:10:30;27.13;;;9.37;;
38399;SDS011;24180;42.676;23.320;2023-02-26T18:12:56;27.27;;;9.60;;
38399;SDS011;24180;42.676;23.320;2023-02-26T18:15:21;24.70;;;9.83;;